sensor_id;sensor_type;location;lat;lon;timestamp;P1;durP1;ratioP1;P2;durP2;ratioP2
44774;SDS011;31340;51.402;0.016;2022-12-20T00:01:33;18.20;;;3.35;;
44774;SDS011;31340;51.402;0.016;2022-12-20T00:04:02;14.70;;;3.25;;
44774;SDS011;31340;51.402;0.016;2022-12-20T00:06:34;19.85;;;3.92;;
44774;SDS011;31340;51.402;0.016;2022-12-20T00:09:03;19.90;;;4.15;;
44774;SDS011;31340;51.402;0.016;2022-12-20T00:11:32;18.60;;;4.18;;
44774;SDS011;31340;51.402;0.016;2022-12-20T00:14:00;23.98;;;4.30;;
44774;SDS011;31340;51.402;0.016;2022-12-20T00:16:28;19.70;;;3.80;;
44774;SDS011;31340;51.402;0.016;2022-12-20T00:18:56;14.32;;;3.42;;
44774;SDS011;31340;51.402;0.016;2022-12-20T00:21:26;13.23;;;3.42;;
44774;SDS011;31340;51.402;0.016;2022-12-20T00:23:54;20.35;;;4.38;;
44774;SDS011;31340;51.402;0.016;2022-12-20T00:26:23;19.70;;;3.85;;
44774;SDS011;31340;51.402;0.016;2022-12-20T00:28:53;21.00;;;3.83;;
44774;SDS011;31340;51.402;0.016;2022-12-20T00:31:20;17.25;;;3.22;;
44774;SDS011;31340;51.402;0.016;2022-12-20T00:33:50;22.20;;;4.35;;
44774;SDS011;31340;51.402;0.016;2022-12-20T00:36:19;15.35;;;3.50;;
44774;SDS011;31340;51.402;0.016;2022-12-20T00:38:48;19.20;;;3.17;;
44774;SDS011;31340;51.402;0.016;2022-12-20T00:41:19;13.50;;;2.90;;
44774;SDS011;31340;51.402;0.016;2022-12-20T00:43:50;16.08;;;2.70;;
44774;SDS011;31340;51.402;0.016;2022-12-20T00:46:19;13.52;;;2.40;;
44774;SDS011;31340;51.402;0.016;2022-12-20T00:51:18;15.55;;;2.63;;
44774;SDS011;31340;51.402;0.016;2022-12-20T00:53:47;9.95;;;2.40;;
44774;SDS011;31340;51.402;0.016;2022-12-20T00:56:16;12.57;;;2.67;;
44774;SDS011;31340;51.402;0.016;2022-12-20T00:58:44;13.65;;;2.83;;
44774;SDS011;31340;51.402;0.016;2022-12-20T01:01:19;12.85;;;2.03;;
44774;SDS011;31340;51.402;0.016;2022-12-20T01:03:49;13.27;;;2.60;;
44774;SDS011;31340;51.402;0.016;2022-12-20T01:06:18;12.27;;;2.58;;
44774;SDS011;31340;51.402;0.016;2022-12-20T01:08:47;10.75;;;2.53;;
44774;SDS011;31340;51.402;0.016;2022-12-20T01:11:18;15.13;;;2.83;;
44774;SDS011;31340;51.402;0.016;2022-12-20T01:13:49;11.95;;;2.50;;
44774;SDS011;31340;51.402;0.016;2022-12-20T01:16:22;13.67;;;2.73;;
44774;SDS011;31340;51.402;0.016;2022-12-20T01:18:56;12.60;;;2.90;;
44774;SDS011;31340;51.402;0.016;2022-12-20T01:21:24;13.63;;;2.92;;
44774;SDS011;31340;51.402;0.016;2022-12-20T01:23:53;16.27;;;3.55;;
44774;SDS011;31340;51.402;0.016;2022-12-20T01:26:22;16.05;;;2.80;;
44774;SDS011;31340;51.402;0.016;2022-12-20T01:28:52;14.68;;;3.00;;
44774;SDS011;31340;51.402;0.016;2022-12-20T01:31:22;13.75;;;3.38;;
44774;SDS011;31340;51.402;0.016;2022-12-20T01:33:50;10.27;;;3.38;;
44774;SDS011;31340;51.402;0.016;2022-12-20T01:36:19;15.73;;;3.28;;
44774;SDS011;31340;51.402;0.016;2022-12-20T01:38:56;14.32;;;4.20;;
44774;SDS011;31340;51.402;0.016;2022-12-20T01:41:34;12.32;;;2.95;;
44774;SDS011;31340;51.402;0.016;2022-12-20T01:44:04;15.70;;;3.05;;
44774;SDS011;31340;51.402;0.016;2022-12-20T01:46:33;15.45;;;3.92;;
44774;SDS011;31340;51.402;0.016;2022-12-20T01:51:34;15.10;;;3.38;;
44774;SDS011;31340;51.402;0.016;2022-12-20T01:54:07;23.23;;;3.25;;
44774;SDS011;31340;51.402;0.016;2022-12-20T01:56:39;16.33;;;4.05;;
44774;SDS011;31340;51.402;0.016;2022-12-20T01:59:12;17.23;;;3.38;;
44774;SDS011;31340;51.402;0.016;2022-12-20T02:01:41;18.60;;;3.90;;
44774;SDS011;31340;51.402;0.016;2022-12-20T02:04:10;16.70;;;3.58;;
44774;SDS011;31340;51.402;0.016;2022-12-20T02:06:38;18.60;;;3.92;;
44774;SDS011;31340;51.402;0.016;2022-12-20T02:09:05;17.70;;;4.03;;
44774;SDS011;31340;51.402;0.016;2022-12-20T02:32:07;15.80;;;3.38;;
44774;SDS011;31340;51.402;0.016;2022-12-20T02:34:55;13.05;;;2.92;;
44774;SDS011;31340;51.402;0.016;2022-12-20T02:37:23;8.98;;;2.95;;
44774;SDS011;31340;51.402;0.016;2022-12-20T02:39:52;10.93;;;2.80;;
44774;SDS011;31340;51.402;0.016;2022-12-20T02:42:20;11.63;;;2.83;;
44774;SDS011;31340;51.402;0.016;2022-12-20T02:44:56;14.25;;;3.50;;
44774;SDS011;31340;51.402;0.016;2022-12-20T02:47:49;13.75;;;2.90;;
44774;SDS011;31340;51.402;0.016;2022-12-20T02:50:30;13.82;;;2.85;;
44774;SDS011;31340;51.402;0.016;2022-12-20T02:53:18;9.07;;;2.65;;
44774;SDS011;31340;51.402;0.016;2022-12-20T02:56:11;9.23;;;2.58;;
44774;SDS011;31340;51.402;0.016;2022-12-20T02:58:46;8.05;;;2.53;;
44774;SDS011;31340;51.402;0.016;2022-12-20T03:01:27;12.65;;;3.17;;
44774;SDS011;31340;51.402;0.016;2022-12-20T03:04:02;16.58;;;3.35;;
44774;SDS011;31340;51.402;0.016;2022-12-20T03:06:30;9.80;;;3.47;;
44774;SDS011;31340;51.402;0.016;2022-12-20T03:08:58;19.40;;;4.05;;
44774;SDS011;31340;51.402;0.016;2022-12-20T03:11:28;15.63;;;3.75;;
44774;SDS011;31340;51.402;0.016;2022-12-20T03:13:56;19.08;;;3.90;;
44774;SDS011;31340;51.402;0.016;2022-12-20T03:16:24;18.27;;;4.15;;
44774;SDS011;31340;51.402;0.016;2022-12-20T03:18:52;18.45;;;4.07;;
44774;SDS011;31340;51.402;0.016;2022-12-20T03:21:19;14.05;;;3.60;;
44774;SDS011;31340;51.402;0.016;2022-12-20T03:23:47;20.30;;;4.40;;
44774;SDS011;31340;51.402;0.016;2022-12-20T03:26:14;18.27;;;4.28;;
44774;SDS011;31340;51.402;0.016;2022-12-20T03:28:46;16.08;;;4.13;;
44774;SDS011;31340;51.402;0.016;2022-12-20T03:31:18;19.48;;;3.92;;
44774;SDS011;31340;51.402;0.016;2022-12-20T03:33:51;20.77;;;4.38;;
44774;SDS011;31340;51.402;0.016;2022-12-20T03:36:18;13.82;;;4.10;;
44774;SDS011;31340;51.402;0.016;2022-12-20T03:38:54;12.85;;;3.70;;
44774;SDS011;31340;51.402;0.016;2022-12-20T03:41:24;19.83;;;4.38;;
44774;SDS011;31340;51.402;0.016;2022-12-20T03:43:52;16.38;;;4.10;;
44774;SDS011;31340;51.402;0.016;2022-12-20T03:46:21;14.88;;;3.10;;
44774;SDS011;31340;51.402;0.016;2022-12-20T03:48:49;21.10;;;4.10;;
44774;SDS011;31340;51.402;0.016;2022-12-20T03:51:17;22.98;;;4.40;;
44774;SDS011;31340;51.402;0.016;2022-12-20T03:53:45;22.30;;;4.13;;
44774;SDS011;31340;51.402;0.016;2022-12-20T03:56:13;22.33;;;5.10;;
44774;SDS011;31340;51.402;0.016;2022-12-20T03:58:42;20.30;;;4.70;;
44774;SDS011;31340;51.402;0.016;2022-12-20T04:03:46;21.02;;;4.80;;
44774;SDS011;31340;51.402;0.016;2022-12-20T04:06:14;15.02;;;3.90;;
44774;SDS011;31340;51.402;0.016;2022-12-20T04:08:42;22.85;;;5.03;;
44774;SDS011;31340;51.402;0.016;2022-12-20T04:11:12;18.45;;;4.88;;
44774;SDS011;31340;51.402;0.016;2022-12-20T04:14:03;15.80;;;4.25;;
44774;SDS011;31340;51.402;0.016;2022-12-20T04:16:32;24.73;;;4.30;;
44774;SDS011;31340;51.402;0.016;2022-12-20T04:19:01;21.58;;;4.65;;
44774;SDS011;31340;51.402;0.016;2022-12-20T04:21:34;20.55;;;4.60;;
44774;SDS011;31340;51.402;0.016;2022-12-20T04:24:03;21.40;;;4.70;;
44774;SDS011;31340;51.402;0.016;2022-12-20T04:26:45;28.13;;;5.35;;
44774;SDS011;31340;51.402;0.016;2022-12-20T04:29:14;20.95;;;5.18;;
44774;SDS011;31340;51.402;0.016;2022-12-20T04:31:43;22.27;;;5.57;;
44774;SDS011;31340;51.402;0.016;2022-12-20T04:34:11;16.48;;;4.53;;
44774;SDS011;31340;51.402;0.016;2022-12-20T04:36:39;25.40;;;5.80;;
44774;SDS011;31340;51.402;0.016;2022-12-20T04:39:13;16.70;;;4.20;;
44774;SDS011;31340;51.402;0.016;2022-12-20T04:41:58;20.35;;;4.95;;
44774;SDS011;31340;51.402;0.016;2022-12-20T04:44:25;18.90;;;4.78;;
44774;SDS011;31340;51.402;0.016;2022-12-20T04:46:53;19.88;;;4.32;;
44774;SDS011;31340;51.402;0.016;2022-12-20T04:49:20;18.90;;;4.90;;
44774;SDS011;31340;51.402;0.016;2022-12-20T04:51:48;19.42;;;4.63;;
44774;SDS011;31340;51.402;0.016;2022-12-20T04:54:17;20.40;;;4.75;;
44774;SDS011;31340;51.402;0.016;2022-12-20T04:56:55;17.45;;;5.03;;
44774;SDS011;31340;51.402;0.016;2022-12-20T04:59:23;27.65;;;4.93;;
44774;SDS011;31340;51.402;0.016;2022-12-20T05:01:53;19.42;;;4.90;;
44774;SDS011;31340;51.402;0.016;2022-12-20T05:04:40;24.30;;;5.95;;
44774;SDS011;31340;51.402;0.016;2022-12-20T05:07:08;28.98;;;6.30;;
44774;SDS011;31340;51.402;0.016;2022-12-20T05:09:38;35.78;;;6.20;;
44774;SDS011;31340;51.402;0.016;2022-12-20T05:12:05;23.73;;;5.60;;
44774;SDS011;31340;51.402;0.016;2022-12-20T05:14:33;20.77;;;5.60;;
44774;SDS011;31340;51.402;0.016;2022-12-20T05:17:01;25.58;;;5.55;;
44774;SDS011;31340;51.402;0.016;2022-12-20T05:19:29;26.63;;;6.07;;
44774;SDS011;31340;51.402;0.016;2022-12-20T05:21:56;28.75;;;5.68;;
44774;SDS011;31340;51.402;0.016;2022-12-20T05:24:58;23.33;;;5.45;;
44774;SDS011;31340;51.402;0.016;2022-12-20T05:27:44;23.13;;;5.88;;
44774;SDS011;31340;51.402;0.016;2022-12-20T05:30:12;25.63;;;6.40;;
44774;SDS011;31340;51.402;0.016;2022-12-20T05:32:40;21.15;;;4.93;;
44774;SDS011;31340;51.402;0.016;2022-12-20T05:35:08;19.08;;;5.25;;
44774;SDS011;31340;51.402;0.016;2022-12-20T05:37:36;18.70;;;5.22;;
44774;SDS011;31340;51.402;0.016;2022-12-20T05:40:14;21.85;;;5.10;;
44774;SDS011;31340;51.402;0.016;2022-12-20T05:42:42;22.17;;;5.57;;
44774;SDS011;31340;51.402;0.016;2022-12-20T05:45:10;24.08;;;5.45;;
44774;SDS011;31340;51.402;0.016;2022-12-20T05:47:47;23.38;;;4.90;;
44774;SDS011;31340;51.402;0.016;2022-12-20T05:50:15;18.33;;;5.40;;
44774;SDS011;31340;51.402;0.016;2022-12-20T05:53:03;20.70;;;5.10;;
44774;SDS011;31340;51.402;0.016;2022-12-20T05:55:43;18.45;;;4.43;;
44774;SDS011;31340;51.402;0.016;2022-12-20T06:00:50;18.13;;;3.92;;
44774;SDS011;31340;51.402;0.016;2022-12-20T06:03:20;19.35;;;5.10;;
44774;SDS011;31340;51.402;0.016;2022-12-20T06:05:50;12.15;;;3.50;;
44774;SDS011;31340;51.402;0.016;2022-12-20T06:08:25;18.02;;;4.50;;
44774;SDS011;31340;51.402;0.016;2022-12-20T06:10:54;14.43;;;3.80;;
44774;SDS011;31340;51.402;0.016;2022-12-20T06:13:23;14.85;;;3.90;;
44774;SDS011;31340;51.402;0.016;2022-12-20T06:15:53;21.73;;;4.50;;
44774;SDS011;31340;51.402;0.016;2022-12-20T06:18:21;21.23;;;5.53;;
44774;SDS011;31340;51.402;0.016;2022-12-20T06:20:53;13.80;;;4.20;;
44774;SDS011;31340;51.402;0.016;2022-12-20T06:23:22;15.10;;;4.75;;
44774;SDS011;31340;51.402;0.016;2022-12-20T06:26:06;18.15;;;4.20;;
44774;SDS011;31340;51.402;0.016;2022-12-20T06:28:44;20.70;;;4.15;;
44774;SDS011;31340;51.402;0.016;2022-12-20T06:31:13;17.40;;;4.30;;
44774;SDS011;31340;51.402;0.016;2022-12-20T06:33:43;17.67;;;3.53;;
44774;SDS011;31340;51.402;0.016;2022-12-20T06:36:14;22.63;;;4.70;;
44774;SDS011;31340;51.402;0.016;2022-12-20T06:38:42;19.08;;;4.53;;
44774;SDS011;31340;51.402;0.016;2022-12-20T06:41:10;21.58;;;4.30;;
44774;SDS011;31340;51.402;0.016;2022-12-20T06:43:38;23.63;;;4.75;;
44774;SDS011;31340;51.402;0.016;2022-12-20T06:46:07;17.58;;;4.35;;
44774;SDS011;31340;51.402;0.016;2022-12-20T06:48:35;24.60;;;4.70;;
44774;SDS011;31340;51.402;0.016;2022-12-20T06:51:05;19.80;;;3.88;;
44774;SDS011;31340;51.402;0.016;2022-12-20T06:53:33;22.10;;;5.18;;
44774;SDS011;31340;51.402;0.016;2022-12-20T06:56:01;25.38;;;3.78;;
44774;SDS011;31340;51.402;0.016;2022-12-20T06:58:30;19.05;;;3.90;;
44774;SDS011;31340;51.402;0.016;2022-12-20T07:00:58;20.05;;;4.68;;
44774;SDS011;31340;51.402;0.016;2022-12-20T07:03:26;17.73;;;3.95;;
44774;SDS011;31340;51.402;0.016;2022-12-20T07:05:54;24.15;;;4.57;;
44774;SDS011;31340;51.402;0.016;2022-12-20T07:08:22;14.40;;;3.20;;
44774;SDS011;31340;51.402;0.016;2022-12-20T07:10:50;22.35;;;4.38;;
44774;SDS011;31340;51.402;0.016;2022-12-20T07:13:18;17.88;;;4.13;;
44774;SDS011;31340;51.402;0.016;2022-12-20T07:15:46;15.07;;;3.55;;
44774;SDS011;31340;51.402;0.016;2022-12-20T07:18:14;16.08;;;3.50;;
44774;SDS011;31340;51.402;0.016;2022-12-20T07:20:41;23.00;;;4.18;;
44774;SDS011;31340;51.402;0.016;2022-12-20T07:23:09;23.40;;;4.38;;
44774;SDS011;31340;51.402;0.016;2022-12-20T07:25:37;18.67;;;3.97;;
44774;SDS011;31340;51.402;0.016;2022-12-20T07:28:04;20.80;;;3.80;;
44774;SDS011;31340;51.402;0.016;2022-12-20T07:30:32;18.45;;;3.63;;
44774;SDS011;31340;51.402;0.016;2022-12-20T07:32:59;10.70;;;1.90;;
44774;SDS011;31340;51.402;0.016;2022-12-20T07:35:27;4.13;;;1.17;;
44774;SDS011;31340;51.402;0.016;2022-12-20T07:37:54;3.10;;;1.23;;
44774;SDS011;31340;51.402;0.016;2022-12-20T07:40:22;1.42;;;0.60;;
44774;SDS011;31340;51.402;0.016;2022-12-20T07:42:50;3.08;;;0.50;;
44774;SDS011;31340;51.402;0.016;2022-12-20T07:45:18;3.80;;;0.22;;
44774;SDS011;31340;51.402;0.016;2022-12-20T07:47:45;0.55;;;0.32;;
44774;SDS011;31340;51.402;0.016;2022-12-20T07:50:13;6.25;;;0.47;;
44774;SDS011;31340;51.402;0.016;2022-12-20T07:52:41;0.20;;;0.20;;
44774;SDS011;31340;51.402;0.016;2022-12-20T07:55:10;2.47;;;0.38;;
44774;SDS011;31340;51.402;0.016;2022-12-20T07:57:40;0.95;;;0.50;;
44774;SDS011;31340;51.402;0.016;2022-12-20T08:00:15;1.00;;;0.30;;
44774;SDS011;31340;51.402;0.016;2022-12-20T08:02:48;2.13;;;0.25;;
44774;SDS011;31340;51.402;0.016;2022-12-20T08:05:22;0.30;;;0.30;;
44774;SDS011;31340;51.402;0.016;2022-12-20T08:07:50;0.70;;;0.40;;
44774;SDS011;31340;51.402;0.016;2022-12-20T08:10:25;3.25;;;0.30;;
44774;SDS011;31340;51.402;0.016;2022-12-20T08:12:54;2.92;;;0.40;;
44774;SDS011;31340;51.402;0.016;2022-12-20T08:15:23;1.52;;;0.52;;
44774;SDS011;31340;51.402;0.016;2022-12-20T08:17:51;0.60;;;0.40;;
44774;SDS011;31340;51.402;0.016;2022-12-20T08:20:19;0.88;;;0.40;;
44774;SDS011;31340;51.402;0.016;2022-12-20T08:22:47;1.08;;;0.40;;
44774;SDS011;31340;51.402;0.016;2022-12-20T08:25:14;2.35;;;0.60;;
44774;SDS011;31340;51.402;0.016;2022-12-20T08:27:42;0.65;;;0.60;;
44774;SDS011;31340;51.402;0.016;2022-12-20T08:30:10;0.63;;;0.40;;
44774;SDS011;31340;51.402;0.016;2022-12-20T08:32:38;1.23;;;0.40;;
44774;SDS011;31340;51.402;0.016;2022-12-20T08:35:06;0.80;;;0.43;;
44774;SDS011;31340;51.402;0.016;2022-12-20T08:37:34;0.68;;;0.40;;
44774;SDS011;31340;51.402;0.016;2022-12-20T08:40:01;0.73;;;0.55;;
44774;SDS011;31340;51.402;0.016;2022-12-20T08:42:30;2.33;;;0.40;;
44774;SDS011;31340;51.402;0.016;2022-12-20T08:44:58;1.05;;;0.60;;
44774;SDS011;31340;51.402;0.016;2022-12-20T08:47:25;1.75;;;0.45;;
44774;SDS011;31340;51.402;0.016;2022-12-20T08:49:55;1.25;;;0.45;;
44774;SDS011;31340;51.402;0.016;2022-12-20T08:52:22;0.80;;;0.40;;
44774;SDS011;31340;51.402;0.016;2022-12-20T08:54:50;0.57;;;0.38;;
44774;SDS011;31340;51.402;0.016;2022-12-20T08:57:17;1.45;;;0.40;;
44774;SDS011;31340;51.402;0.016;2022-12-20T08:59:45;5.10;;;0.75;;
44774;SDS011;31340;51.402;0.016;2022-12-20T09:02:12;2.25;;;0.60;;
44774;SDS011;31340;51.402;0.016;2022-12-20T09:04:40;2.72;;;0.50;;
44774;SDS011;31340;51.402;0.016;2022-12-20T09:07:08;2.97;;;0.80;;
44774;SDS011;31340;51.402;0.016;2022-12-20T09:09:36;2.95;;;0.70;;
44774;SDS011;31340;51.402;0.016;2022-12-20T09:12:04;1.98;;;0.60;;
44774;SDS011;31340;51.402;0.016;2022-12-20T09:14:31;7.63;;;1.10;;
44774;SDS011;31340;51.402;0.016;2022-12-20T09:16:59;6.15;;;0.80;;
44774;SDS011;31340;51.402;0.016;2022-12-20T09:19:26;5.05;;;0.82;;
44774;SDS011;31340;51.402;0.016;2022-12-20T09:21:54;6.63;;;0.93;;
44774;SDS011;31340;51.402;0.016;2022-12-20T09:24:22;4.78;;;1.05;;
44774;SDS011;31340;51.402;0.016;2022-12-20T09:26:49;13.30;;;1.90;;
44774;SDS011;31340;51.402;0.016;2022-12-20T09:29:18;3.78;;;0.80;;
44774;SDS011;31340;51.402;0.016;2022-12-20T09:31:53;7.30;;;1.23;;
44774;SDS011;31340;51.402;0.016;2022-12-20T09:34:20;6.53;;;1.45;;
44774;SDS011;31340;51.402;0.016;2022-12-20T09:36:48;5.50;;;1.15;;
44774;SDS011;31340;51.402;0.016;2022-12-20T09:39:15;8.32;;;1.13;;
44774;SDS011;31340;51.402;0.016;2022-12-20T09:41:43;12.23;;;1.60;;
44774;SDS011;31340;51.402;0.016;2022-12-20T09:46:41;7.50;;;1.02;;
44774;SDS011;31340;51.402;0.016;2022-12-20T09:49:12;7.10;;;1.25;;
44774;SDS011;31340;51.402;0.016;2022-12-20T09:59:34;8.45;;;1.52;;
44774;SDS011;31340;51.402;0.016;2022-12-20T10:02:10;6.18;;;1.00;;
44774;SDS011;31340;51.402;0.016;2022-12-20T10:04:58;10.00;;;1.65;;
44774;SDS011;31340;51.402;0.016;2022-12-20T10:07:31;5.65;;;1.30;;
44774;SDS011;31340;51.402;0.016;2022-12-20T10:12:54;12.60;;;1.13;;
44774;SDS011;31340;51.402;0.016;2022-12-20T10:24:03;6.97;;;1.10;;
44774;SDS011;31340;51.402;0.016;2022-12-20T10:26:38;7.63;;;1.55;;
44774;SDS011;31340;51.402;0.016;2022-12-20T10:29:07;12.68;;;1.52;;
44774;SDS011;31340;51.402;0.016;2022-12-20T10:31:34;6.68;;;1.52;;
44774;SDS011;31340;51.402;0.016;2022-12-20T10:34:02;8.90;;;1.63;;
44774;SDS011;31340;51.402;0.016;2022-12-20T10:36:31;11.23;;;1.52;;
44774;SDS011;31340;51.402;0.016;2022-12-20T10:39:03;8.65;;;1.65;;
44774;SDS011;31340;51.402;0.016;2022-12-20T10:46:46;10.70;;;2.00;;
44774;SDS011;31340;51.402;0.016;2022-12-20T10:49:33;8.05;;;1.80;;
44774;SDS011;31340;51.402;0.016;2022-12-20T10:59:55;14.27;;;1.75;;
44774;SDS011;31340;51.402;0.016;2022-12-20T11:07:55;18.27;;;2.95;;
44774;SDS011;31340;51.402;0.016;2022-12-20T11:10:46;13.52;;;1.92;;
44774;SDS011;31340;51.402;0.016;2022-12-20T11:13:19;15.73;;;2.83;;
44774;SDS011;31340;51.402;0.016;2022-12-20T11:15:49;13.85;;;1.70;;
44774;SDS011;31340;51.402;0.016;2022-12-20T11:21:26;13.20;;;1.80;;
44774;SDS011;31340;51.402;0.016;2022-12-20T11:24:21;18.25;;;2.22;;
44774;SDS011;31340;51.402;0.016;2022-12-20T11:27:55;12.80;;;2.10;;
44774;SDS011;31340;51.402;0.016;2022-12-20T11:30:14;14.10;;;2.50;;
44774;SDS011;31340;51.402;0.016;2022-12-20T11:35:39;14.93;;;1.95;;
44774;SDS011;31340;51.402;0.016;2022-12-20T11:44:06;20.08;;;2.65;;
44774;SDS011;31340;51.402;0.016;2022-12-20T11:52:05;12.57;;;2.63;;
44774;SDS011;31340;51.402;0.016;2022-12-20T11:54:46;15.70;;;2.45;;
44774;SDS011;31340;51.402;0.016;2022-12-20T11:57:20;13.13;;;2.30;;
44774;SDS011;31340;51.402;0.016;2022-12-20T11:59:55;12.20;;;2.65;;
44774;SDS011;31340;51.402;0.016;2022-12-20T12:02:27;18.10;;;2.53;;
44774;SDS011;31340;51.402;0.016;2022-12-20T12:05:03;14.32;;;2.40;;
44774;SDS011;31340;51.402;0.016;2022-12-20T12:07:59;17.42;;;2.72;;
44774;SDS011;31340;51.402;0.016;2022-12-20T12:10:35;14.57;;;2.47;;
44774;SDS011;31340;51.402;0.016;2022-12-20T12:15:57;17.25;;;3.65;;
44774;SDS011;31340;51.402;0.016;2022-12-20T12:18:39;16.40;;;2.97;;
44774;SDS011;31340;51.402;0.016;2022-12-20T12:26:31;21.27;;;3.50;;
44774;SDS011;31340;51.402;0.016;2022-12-20T12:29:05;18.55;;;2.97;;
44774;SDS011;31340;51.402;0.016;2022-12-20T12:31:49;12.88;;;2.88;;
44774;SDS011;31340;51.402;0.016;2022-12-20T12:45:02;20.13;;;3.83;;
44774;SDS011;31340;51.402;0.016;2022-12-20T12:47:44;25.95;;;3.90;;
44774;SDS011;31340;51.402;0.016;2022-12-20T12:50:28;13.90;;;2.17;;
44774;SDS011;31340;51.402;0.016;2022-12-20T12:53:04;16.33;;;3.25;;
44774;SDS011;31340;51.402;0.016;2022-12-20T12:55:35;15.20;;;3.60;;
44774;SDS011;31340;51.402;0.016;2022-12-20T12:58:43;21.25;;;3.25;;
44774;SDS011;31340;51.402;0.016;2022-12-20T13:06:55;21.05;;;3.78;;
44774;SDS011;31340;51.402;0.016;2022-12-20T13:09:49;13.00;;;3.25;;
44774;SDS011;31340;51.402;0.016;2022-12-20T13:17:47;16.38;;;3.50;;
44774;SDS011;31340;51.402;0.016;2022-12-20T13:20:33;15.32;;;3.25;;
44774;SDS011;31340;51.402;0.016;2022-12-20T13:25:48;14.50;;;2.90;;
44774;SDS011;31340;51.402;0.016;2022-12-20T13:33:39;15.45;;;2.97;;
44774;SDS011;31340;51.402;0.016;2022-12-20T13:44:07;15.32;;;3.33;;
44774;SDS011;31340;51.402;0.016;2022-12-20T13:46:49;19.55;;;3.30;;
44774;SDS011;31340;51.402;0.016;2022-12-20T13:49:37;19.70;;;3.42;;
44774;SDS011;31340;51.402;0.016;2022-12-20T13:52:17;19.88;;;3.88;;
44774;SDS011;31340;51.402;0.016;2022-12-20T13:54:46;14.95;;;3.20;;
44774;SDS011;31340;51.402;0.016;2022-12-20T13:57:16;15.63;;;3.40;;
44774;SDS011;31340;51.402;0.016;2022-12-20T13:59:51;18.92;;;3.50;;
44774;SDS011;31340;51.402;0.016;2022-12-20T14:02:32;12.25;;;2.70;;
44774;SDS011;31340;51.402;0.016;2022-12-20T14:05:12;19.30;;;3.53;;
44774;SDS011;31340;51.402;0.016;2022-12-20T14:07:45;17.48;;;3.25;;
44774;SDS011;31340;51.402;0.016;2022-12-20T14:10:23;18.60;;;3.78;;
44774;SDS011;31340;51.402;0.016;2022-12-20T14:12:52;23.95;;;3.95;;
44774;SDS011;31340;51.402;0.016;2022-12-20T14:18:05;14.65;;;3.70;;
44774;SDS011;31340;51.402;0.016;2022-12-20T14:20:47;18.23;;;4.63;;
44774;SDS011;31340;51.402;0.016;2022-12-20T14:23:21;22.95;;;4.93;;
44774;SDS011;31340;51.402;0.016;2022-12-20T14:25:51;23.23;;;4.40;;
44774;SDS011;31340;51.402;0.016;2022-12-20T14:36:43;25.20;;;4.40;;
44774;SDS011;31340;51.402;0.016;2022-12-20T14:39:26;23.75;;;3.85;;
44774;SDS011;31340;51.402;0.016;2022-12-20T14:42:00;21.45;;;4.32;;
44774;SDS011;31340;51.402;0.016;2022-12-20T14:44:30;25.13;;;4.27;;
44774;SDS011;31340;51.402;0.016;2022-12-20T14:47:12;22.92;;;3.67;;
44774;SDS011;31340;51.402;0.016;2022-12-20T14:49:54;18.60;;;4.32;;
44774;SDS011;31340;51.402;0.016;2022-12-20T14:57:42;29.45;;;4.60;;
44774;SDS011;31340;51.402;0.016;2022-12-20T15:00:12;26.65;;;4.72;;
44774;SDS011;31340;51.402;0.016;2022-12-20T15:02:57;21.20;;;4.38;;
44774;SDS011;31340;51.402;0.016;2022-12-20T15:08:23;24.55;;;4.32;;
44774;SDS011;31340;51.402;0.016;2022-12-20T15:10:56;29.75;;;4.97;;
44774;SDS011;31340;51.402;0.016;2022-12-20T15:13:38;25.08;;;4.93;;
44774;SDS011;31340;51.402;0.016;2022-12-20T15:16:19;18.15;;;3.95;;
44774;SDS011;31340;51.402;0.016;2022-12-20T15:18:49;25.33;;;4.47;;
44774;SDS011;31340;51.402;0.016;2022-12-20T15:21:24;25.85;;;4.63;;
44774;SDS011;31340;51.402;0.016;2022-12-20T15:24:02;20.83;;;4.10;;
44774;SDS011;31340;51.402;0.016;2022-12-20T15:26:35;21.27;;;5.20;;
44774;SDS011;31340;51.402;0.016;2022-12-20T15:29:04;22.98;;;5.32;;
44774;SDS011;31340;51.402;0.016;2022-12-20T15:31:33;30.48;;;5.30;;
44774;SDS011;31340;51.402;0.016;2022-12-20T15:34:02;28.98;;;5.32;;
44774;SDS011;31340;51.402;0.016;2022-12-20T15:36:38;28.15;;;4.90;;
44774;SDS011;31340;51.402;0.016;2022-12-20T15:39:05;22.23;;;5.15;;
44774;SDS011;31340;51.402;0.016;2022-12-20T15:41:45;21.67;;;5.13;;
44774;SDS011;31340;51.402;0.016;2022-12-20T15:44:21;29.77;;;4.63;;
44774;SDS011;31340;51.402;0.016;2022-12-20T15:46:51;27.67;;;4.20;;
44774;SDS011;31340;51.402;0.016;2022-12-20T15:49:23;25.80;;;4.80;;
44774;SDS011;31340;51.402;0.016;2022-12-20T15:51:53;30.85;;;4.97;;
44774;SDS011;31340;51.402;0.016;2022-12-20T15:56:54;24.30;;;5.07;;
44774;SDS011;31340;51.402;0.016;2022-12-20T15:59:23;23.65;;;4.43;;
44774;SDS011;31340;51.402;0.016;2022-12-20T16:02:22;28.70;;;4.78;;
44774;SDS011;31340;51.402;0.016;2022-12-20T16:04:55;22.33;;;4.65;;
44774;SDS011;31340;51.402;0.016;2022-12-20T16:07:25;27.85;;;4.90;;
44774;SDS011;31340;51.402;0.016;2022-12-20T16:09:52;28.38;;;4.90;;
44774;SDS011;31340;51.402;0.016;2022-12-20T16:12:22;21.63;;;4.55;;
44774;SDS011;31340;51.402;0.016;2022-12-20T16:14:53;18.90;;;5.07;;
44774;SDS011;31340;51.402;0.016;2022-12-20T16:17:21;21.33;;;4.38;;
44774;SDS011;31340;51.402;0.016;2022-12-20T16:19:50;19.48;;;5.00;;
44774;SDS011;31340;51.402;0.016;2022-12-20T16:22:19;22.10;;;5.13;;
44774;SDS011;31340;51.402;0.016;2022-12-20T16:24:52;24.60;;;4.43;;
44774;SDS011;31340;51.402;0.016;2022-12-20T16:27:20;20.05;;;4.90;;
44774;SDS011;31340;51.402;0.016;2022-12-20T16:29:48;29.35;;;4.75;;
44774;SDS011;31340;51.402;0.016;2022-12-20T16:32:16;26.92;;;5.90;;
44774;SDS011;31340;51.402;0.016;2022-12-20T16:34:46;28.45;;;5.18;;
44774;SDS011;31340;51.402;0.016;2022-12-20T16:37:15;27.73;;;5.47;;
44774;SDS011;31340;51.402;0.016;2022-12-20T16:39:43;21.15;;;6.05;;
44774;SDS011;31340;51.402;0.016;2022-12-20T16:42:12;25.70;;;4.63;;
44774;SDS011;31340;51.402;0.016;2022-12-20T16:44:41;20.63;;;5.43;;
44774;SDS011;31340;51.402;0.016;2022-12-20T16:49:41;23.23;;;5.75;;
44774;SDS011;31340;51.402;0.016;2022-12-20T16:52:18;24.65;;;5.60;;
44774;SDS011;31340;51.402;0.016;2022-12-20T16:54:48;26.45;;;7.25;;
44774;SDS011;31340;51.402;0.016;2022-12-20T16:57:16;29.60;;;7.88;;
44774;SDS011;31340;51.402;0.016;2022-12-20T16:59:44;31.80;;;8.40;;
44774;SDS011;31340;51.402;0.016;2022-12-20T17:02:17;25.00;;;6.63;;
44774;SDS011;31340;51.402;0.016;2022-12-20T17:04:47;28.63;;;6.70;;
44774;SDS011;31340;51.402;0.016;2022-12-20T17:07:15;30.70;;;6.28;;
44774;SDS011;31340;51.402;0.016;2022-12-20T17:09:42;34.38;;;7.20;;
44774;SDS011;31340;51.402;0.016;2022-12-20T17:12:14;25.90;;;6.43;;
44774;SDS011;31340;51.402;0.016;2022-12-20T17:14:43;29.00;;;7.60;;
44774;SDS011;31340;51.402;0.016;2022-12-20T17:17:11;32.65;;;7.35;;
44774;SDS011;31340;51.402;0.016;2022-12-20T17:19:39;32.35;;;7.10;;
44774;SDS011;31340;51.402;0.016;2022-12-20T17:22:08;29.77;;;6.80;;
44774;SDS011;31340;51.402;0.016;2022-12-20T17:24:50;30.08;;;6.82;;
44774;SDS011;31340;51.402;0.016;2022-12-20T17:27:18;35.22;;;7.65;;
44774;SDS011;31340;51.402;0.016;2022-12-20T17:29:46;33.63;;;8.68;;
44774;SDS011;31340;51.402;0.016;2022-12-20T17:32:20;31.80;;;8.23;;
44774;SDS011;31340;51.402;0.016;2022-12-20T17:34:50;26.83;;;8.07;;
44774;SDS011;31340;51.402;0.016;2022-12-20T17:37:17;24.13;;;7.25;;
44774;SDS011;31340;51.402;0.016;2022-12-20T17:39:46;31.23;;;7.45;;
44774;SDS011;31340;51.402;0.016;2022-12-20T17:42:14;29.15;;;8.05;;